createdAt,value
2018-07-16T00:00:26.496Z,19.80
2018-07-16T00:00:59.466Z,19.70
2018-07-16T00:01:32.436Z,19.70
2018-07-16T00:02:05.972Z,19.80
2018-07-16T00:02:39.012Z,19.70
2018-07-16T00:03:12.053Z,19.70
2018-07-16T00:03:45.088Z,19.80
2018-07-16T00:04:18.051Z,19.70
2018-07-16T00:04:51.004Z,19.70
2018-07-16T00:05:24.073Z,19.70
2018-07-16T00:05:57.082Z,19.60
2018-07-16T00:06:30.024Z,19.70
2018-07-16T00:07:03.020Z,19.60
2018-07-16T00:07:36.033Z,19.70
2018-07-16T00:08:09.086Z,19.60
2018-07-16T00:08:42.138Z,19.70
2018-07-16T00:09:15.141Z,19.60
2018-07-16T00:09:48.395Z,19.70
2018-07-16T00:10:21.353Z,19.60
2018-07-16T00:10:54.353Z,19.60
2018-07-16T00:11:27.397Z,19.70
2018-07-16T00:12:00.376Z,19.60
2018-07-16T00:12:33.478Z,19.60
2018-07-16T00:13:06.484Z,19.50
2018-07-16T00:13:39.488Z,19.50
2018-07-16T00:14:12.433Z,19.60
2018-07-16T00:14:45.704Z,19.70
2018-07-16T00:20:10.823Z,19.60
2018-07-16T00:20:43.849Z,19.50
2018-07-16T00:21:16.863Z,19.50
2018-07-16T00:21:49.852Z,19.50
2018-07-16T00:22:22.821Z,19.50
2018-07-16T00:22:55.810Z,19.50
2018-07-16T00:23:28.804Z,19.50
2018-07-16T00:24:01.831Z,19.40
2018-07-16T00:24:34.875Z,19.50
2018-07-16T00:26:37.498Z,19.50
2018-07-16T00:27:10.536Z,19.50
2018-07-16T00:27:43.503Z,19.40
2018-07-16T00:28:16.521Z,19.40
2018-07-16T00:28:49.515Z,19.50
2018-07-16T00:29:22.589Z,19.40
2018-07-16T00:29:55.621Z,19.40
2018-07-16T00:30:28.606Z,19.40
2018-07-16T00:31:01.607Z,19.30
2018-07-16T00:31:34.616Z,19.40
2018-07-16T00:32:07.647Z,19.30
2018-07-16T00:32:40.663Z,19.30
2018-07-16T00:33:13.611Z,19.40
2018-07-16T00:33:46.588Z,19.30
2018-07-16T00:34:19.536Z,19.30
2018-07-16T00:34:52.513Z,19.30
2018-07-16T00:36:55.038Z,19.30
2018-07-16T00:37:28.008Z,19.30
2018-07-16T00:38:01.014Z,19.20
2018-07-16T00:38:34.017Z,19.20
2018-07-16T00:39:07.055Z,19.30
2018-07-16T00:39:40.020Z,19.10
2018-07-16T00:40:13.018Z,19.20
2018-07-16T00:40:46.005Z,19.20
2018-07-16T00:41:18.943Z,19.20
2018-07-16T00:41:51.945Z,19.10
2018-07-16T00:42:24.926Z,19.20
2018-07-16T00:42:57.904Z,19.20
2018-07-16T00:43:30.873Z,19.20
2018-07-16T00:44:03.928Z,19.20
2018-07-16T00:44:37.008Z,19.10
2018-07-16T00:45:10.004Z,19.20
2018-07-16T00:45:43.687Z,19.20
2018-07-16T00:46:16.630Z,19.10
2018-07-16T00:46:49.614Z,19.10
2018-07-16T00:47:22.634Z,19.10
2018-07-16T00:47:55.625Z,19.10
2018-07-16T00:48:28.619Z,19.10
2018-07-16T00:49:01.896Z,19.20
2018-07-16T00:49:35.060Z,19.10
2018-07-16T00:50:08.089Z,19.20
2018-07-16T00:50:41.155Z,19.10
2018-07-16T00:51:14.097Z,19.10
2018-07-16T00:51:47.058Z,19.20
2018-07-16T00:52:20.119Z,19.10
2018-07-16T00:52:53.099Z,19.10
2018-07-16T00:53:26.112Z,19.10
2018-07-16T00:53:59.290Z,19.00
2018-07-16T00:54:32.315Z,19.10
2018-07-16T00:55:05.513Z,19.10
2018-07-16T00:55:38.526Z,19.10
2018-07-16T00:56:11.529Z,19.10
2018-07-16T00:56:44.534Z,19.10
2018-07-16T00:57:17.555Z,19.10
2018-07-16T00:57:50.551Z,19.10
2018-07-16T00:58:23.524Z,19.10
2018-07-16T00:58:56.638Z,19.10
2018-07-16T00:59:29.641Z,19.10
2018-07-16T01:00:02.685Z,19.10
2018-07-16T01:00:35.703Z,19.00
2018-07-16T01:01:08.699Z,19.10
2018-07-16T01:01:41.736Z,19.00
2018-07-16T01:02:14.785Z,19.10
2018-07-16T01:02:47.800Z,19.10
2018-07-16T01:03:20.881Z,19.00
2018-07-16T01:03:53.873Z,19.00
2018-07-16T01:04:26.851Z,19.10
2018-07-16T01:04:59.815Z,19.00
2018-07-16T01:05:32.787Z,19.00
2018-07-16T01:06:05.813Z,19.00
2018-07-16T01:06:38.799Z,19.00
2018-07-16T01:07:11.807Z,19.00
2018-07-16T01:07:44.776Z,18.90
2018-07-16T01:08:17.855Z,19.00
2018-07-16T01:08:50.835Z,19.00
2018-07-16T01:09:23.845Z,18.90
2018-07-16T01:09:56.817Z,19.00
2018-07-16T01:10:29.811Z,19.00
2018-07-16T01:11:02.803Z,19.00
2018-07-16T01:11:35.783Z,18.90
2018-07-16T01:12:09.247Z,18.90
2018-07-16T01:12:42.228Z,19.00
2018-07-16T01:13:15.196Z,18.90
2018-07-16T01:13:48.895Z,18.90
2018-07-16T01:14:21.901Z,18.90
2018-07-16T01:14:54.985Z,18.90
2018-07-16T01:16:57.527Z,18.90
2018-07-16T01:17:30.535Z,18.90
2018-07-16T01:18:03.513Z,18.90
2018-07-16T01:18:36.548Z,18.90
2018-07-16T01:19:09.521Z,18.90
2018-07-16T01:19:42.514Z,18.90
2018-07-16T01:20:15.569Z,18.80
2018-07-16T01:20:48.542Z,18.80
2018-07-16T01:21:21.538Z,18.90
2018-07-16T01:21:54.514Z,18.80
2018-07-16T01:22:27.493Z,18.80
2018-07-16T01:23:00.459Z,18.80
2018-07-16T01:23:33.486Z,18.80
2018-07-16T01:24:06.537Z,18.90
2018-07-16T01:24:39.499Z,18.80
2018-07-16T01:25:12.487Z,18.80
2018-07-16T01:25:45.727Z,18.80
2018-07-16T01:26:18.768Z,18.80
2018-07-16T01:26:51.787Z,18.70
2018-07-16T01:27:24.797Z,18.80
2018-07-16T01:27:57.795Z,18.70
2018-07-16T01:28:30.781Z,18.70
2018-07-16T01:29:03.796Z,18.80
2018-07-16T01:29:36.824Z,18.70
2018-07-16T01:30:09.824Z,18.80
2018-07-16T01:30:42.781Z,18.80
2018-07-16T01:31:15.941Z,18.70
2018-07-16T01:31:48.962Z,18.70
2018-07-16T01:32:21.916Z,18.80
2018-07-16T01:32:54.941Z,18.60
2018-07-16T01:33:27.988Z,18.70
2018-07-16T01:34:00.956Z,18.70
2018-07-16T01:34:34.597Z,18.70
2018-07-16T01:35:07.611Z,18.60
2018-07-16T01:35:42.512Z,18.60
2018-07-16T01:36:15.552Z,18.70
2018-07-16T01:36:48.547Z,18.60
2018-07-16T01:37:21.527Z,18.60
2018-07-16T01:37:54.533Z,18.70
2018-07-16T01:38:27.595Z,18.60
2018-07-16T01:39:00.592Z,18.60
2018-07-16T01:39:33.638Z,18.60
2018-07-16T01:40:06.827Z,18.70
2018-07-16T01:40:40.652Z,18.60
2018-07-16T01:41:13.680Z,18.70
2018-07-16T01:41:46.674Z,18.60
2018-07-16T01:42:19.684Z,18.70
2018-07-16T01:42:52.634Z,18.60
2018-07-16T01:43:25.648Z,18.70
2018-07-16T01:43:58.612Z,18.60
2018-07-16T01:44:31.582Z,18.60
2018-07-16T01:45:04.976Z,18.60
2018-07-16T01:45:37.948Z,18.60
2018-07-16T01:46:10.918Z,18.70
2018-07-16T01:46:43.922Z,18.60
2018-07-16T01:47:16.925Z,18.60
2018-07-16T01:47:49.951Z,18.60
2018-07-16T01:48:22.946Z,18.60
2018-07-16T01:48:55.931Z,18.70
2018-07-16T01:49:28.958Z,18.60
2018-07-16T01:50:01.934Z,18.50
2018-07-16T01:50:34.950Z,18.60
2018-07-16T01:51:07.987Z,18.50
2018-07-16T01:51:40.996Z,18.50
2018-07-16T01:52:13.987Z,18.60
2018-07-16T01:52:46.948Z,18.60
2018-07-16T01:53:20.033Z,18.50
2018-07-16T01:53:53.043Z,18.50
2018-07-16T01:54:26.094Z,18.60
2018-07-16T01:54:59.086Z,18.60
2018-07-16T01:55:32.103Z,18.50
2018-07-16T01:56:05.127Z,18.60
2018-07-16T01:56:38.076Z,18.50
2018-07-16T01:57:11.068Z,18.50
2018-07-16T01:57:44.072Z,18.50
2018-07-16T01:58:17.060Z,18.60
2018-07-16T01:58:50.094Z,18.50
2018-07-16T01:59:23.123Z,18.60
2018-07-16T01:59:56.115Z,18.50
2018-07-16T02:00:29.118Z,18.50
2018-07-16T02:01:03.012Z,18.60
2018-07-16T02:01:36.024Z,18.50
2018-07-16T02:02:09.006Z,18.50
2018-07-16T02:02:42.027Z,18.60
2018-07-16T02:03:15.022Z,18.50
2018-07-16T02:03:47.994Z,18.50
2018-07-16T02:04:20.967Z,18.50
2018-07-16T02:04:53.934Z,18.50
2018-07-16T02:05:26.892Z,18.40
2018-07-16T02:05:59.908Z,18.50
2018-07-16T02:06:32.894Z,18.40
2018-07-16T02:07:05.905Z,18.50
2018-07-16T02:07:38.989Z,18.50
2018-07-16T02:08:11.997Z,18.40
2018-07-16T02:08:45.020Z,18.50
2018-07-16T02:09:18.056Z,18.50
2018-07-16T02:09:51.023Z,18.50
2018-07-16T02:10:23.989Z,18.40
2018-07-16T02:10:57.240Z,18.50
2018-07-16T02:11:30.276Z,18.40
2018-07-16T02:12:03.279Z,18.40
2018-07-16T02:12:36.321Z,18.50
2018-07-16T02:13:09.292Z,18.40
2018-07-16T02:13:42.267Z,18.40
2018-07-16T02:14:15.261Z,18.50
2018-07-16T02:14:48.199Z,18.30
2018-07-16T02:15:21.215Z,18.40
2018-07-16T02:15:54.216Z,18.30
2018-07-16T02:16:27.529Z,18.30
2018-07-16T02:17:00.480Z,18.30
2018-07-16T02:17:33.695Z,18.40
2018-07-16T02:18:06.736Z,18.30
2018-07-16T02:18:39.727Z,18.40
2018-07-16T02:19:12.756Z,18.40
2018-07-16T02:19:45.731Z,18.30
2018-07-16T02:20:18.780Z,18.30
2018-07-16T02:20:51.793Z,18.30
2018-07-16T02:21:24.808Z,18.30
2018-07-16T02:21:57.865Z,18.30
2018-07-16T02:22:30.855Z,18.30
2018-07-16T02:23:03.851Z,18.40
2018-07-16T02:23:36.814Z,18.30
2018-07-16T02:24:09.777Z,18.30
2018-07-16T02:24:43.440Z,18.30
2018-07-16T02:25:16.416Z,18.30
2018-07-16T02:25:49.384Z,18.30
2018-07-16T02:26:22.370Z,18.20
2018-07-16T02:26:55.371Z,18.30
2018-07-16T02:27:28.393Z,18.30
2018-07-16T02:28:01.403Z,18.30
2018-07-16T02:28:34.414Z,18.30
2018-07-16T02:29:07.401Z,18.30
2018-07-16T02:29:40.413Z,18.30
2018-07-16T02:30:13.407Z,18.30
2018-07-16T02:30:46.399Z,18.30
2018-07-16T02:31:19.407Z,18.20
2018-07-16T02:31:52.382Z,18.20
2018-07-16T02:32:25.519Z,18.30
2018-07-16T02:32:58.519Z,18.30
2018-07-16T02:33:31.573Z,18.30
2018-07-16T02:34:04.583Z,18.20
2018-07-16T02:34:37.563Z,18.20
2018-07-16T02:35:10.547Z,18.20
2018-07-16T02:35:43.529Z,18.30
2018-07-16T02:36:16.519Z,18.30
2018-07-16T02:36:49.495Z,18.20
2018-07-16T02:37:22.478Z,18.20
2018-07-16T02:37:55.485Z,18.30
2018-07-16T02:40:05.595Z,18.20
2018-07-16T02:40:38.644Z,18.20
2018-07-16T02:41:11.668Z,18.20
2018-07-16T02:41:44.639Z,18.20
2018-07-16T02:42:17.596Z,18.30
2018-07-16T02:42:50.631Z,18.20
2018-07-16T02:43:23.589Z,18.30
2018-07-16T02:43:56.537Z,18.30
2018-07-16T02:44:29.660Z,18.20
2018-07-16T02:45:02.685Z,18.30
2018-07-16T02:45:35.671Z,18.20
2018-07-16T02:46:08.816Z,18.30
2018-07-16T02:46:41.807Z,18.20
2018-07-16T02:47:14.855Z,18.30
2018-07-16T02:47:47.904Z,18.30
2018-07-16T02:48:20.961Z,18.20
2018-07-16T02:48:53.975Z,18.30
2018-07-16T02:49:26.966Z,18.30
2018-07-16T02:50:00.019Z,18.30
2018-07-16T02:50:33.007Z,18.30
2018-07-16T02:51:06.067Z,18.30
2018-07-16T02:51:39.159Z,18.40
2018-07-16T02:52:12.165Z,18.20
2018-07-16T02:52:45.151Z,18.40
2018-07-16T02:53:18.185Z,18.30
2018-07-16T02:53:51.168Z,18.30
2018-07-16T02:54:24.139Z,18.40
2018-07-16T02:54:57.149Z,18.30
2018-07-16T02:55:30.171Z,18.30
2018-07-16T02:56:03.199Z,18.30
2018-07-16T02:56:36.211Z,18.30
2018-07-16T02:57:09.269Z,18.20
2018-07-16T02:57:42.278Z,18.20
2018-07-16T02:58:15.273Z,18.30
2018-07-16T02:58:48.291Z,18.30
2018-07-16T02:59:21.354Z,18.30
2018-07-16T02:59:54.291Z,18.20
2018-07-16T03:00:27.289Z,18.30
2018-07-16T03:01:00.321Z,18.30
2018-07-16T03:01:33.319Z,18.20
2018-07-16T03:02:06.327Z,18.20
2018-07-16T03:02:39.793Z,18.30
2018-07-16T03:03:12.868Z,18.30
2018-07-16T03:03:45.891Z,18.20
2018-07-16T03:04:18.865Z,18.20
2018-07-16T03:04:51.879Z,18.30
2018-07-16T03:05:24.875Z,18.30
2018-07-16T03:05:57.851Z,18.30
2018-07-16T03:06:30.835Z,18.20
2018-07-16T03:07:03.910Z,18.30
2018-07-16T03:07:36.904Z,18.30
2018-07-16T03:08:09.949Z,18.20
2018-07-16T03:08:42.913Z,18.20
2018-07-16T03:09:15.931Z,18.20
2018-07-16T03:09:48.904Z,18.10
2018-07-16T03:10:21.906Z,18.20
2018-07-16T03:10:54.894Z,18.20
2018-07-16T03:11:27.936Z,18.20
2018-07-16T03:12:00.953Z,18.20
2018-07-16T03:12:33.985Z,18.20
2018-07-16T03:13:06.991Z,18.20
2018-07-16T03:13:40.016Z,18.20
2018-07-16T03:14:13.003Z,18.20
2018-07-16T03:14:45.992Z,18.20
2018-07-16T03:15:18.968Z,18.20
2018-07-16T03:15:51.988Z,18.10
2018-07-16T03:16:25.102Z,18.10
2018-07-16T03:16:58.099Z,18.20
2018-07-16T03:17:31.177Z,18.20
2018-07-16T03:18:04.294Z,18.10
2018-07-16T03:18:37.237Z,18.10
2018-07-16T03:19:10.226Z,18.10
2018-07-16T03:19:43.252Z,18.20
2018-07-16T03:20:16.264Z,18.10
2018-07-16T03:20:49.272Z,18.10
2018-07-16T03:21:22.274Z,18.00
2018-07-16T03:21:55.344Z,18.10
2018-07-16T03:22:28.427Z,18.10
2018-07-16T03:23:01.437Z,18.00
2018-07-16T03:23:34.491Z,18.10
2018-07-16T03:24:07.538Z,18.10
2018-07-16T03:24:40.523Z,18.00
2018-07-16T03:25:13.545Z,18.10
2018-07-16T03:25:46.551Z,18.10
2018-07-16T03:26:19.543Z,18.10
2018-07-16T03:26:52.533Z,18.00
2018-07-16T03:27:25.629Z,18.00
2018-07-16T03:27:58.657Z,18.00
2018-07-16T03:28:31.681Z,17.90
2018-07-16T03:29:04.671Z,18.00
2018-07-16T03:29:37.726Z,18.00
2018-07-16T03:30:20.777Z,17.90
2018-07-16T03:31:40.868Z,17.90
2018-07-16T03:32:13.863Z,17.90
2018-07-16T03:32:46.881Z,18.00
2018-07-16T03:33:19.880Z,17.90
2018-07-16T03:33:52.863Z,17.90
2018-07-16T03:34:25.861Z,17.90
2018-07-16T03:34:59.230Z,17.90
2018-07-16T03:35:32.237Z,18.00
2018-07-16T03:36:05.303Z,17.90
2018-07-16T03:36:38.317Z,17.90
2018-07-16T03:37:11.309Z,18.00
2018-07-16T03:37:44.298Z,17.90
2018-07-16T03:38:17.387Z,17.90
2018-07-16T03:38:50.380Z,17.90
2018-07-16T03:39:23.403Z,18.00
2018-07-16T03:39:56.431Z,17.90
2018-07-16T03:40:29.445Z,18.00
2018-07-16T03:41:02.631Z,18.00
2018-07-16T03:41:35.678Z,17.90
2018-07-16T03:42:08.693Z,18.00
2018-07-16T03:42:41.777Z,17.90
2018-07-16T03:43:14.853Z,17.90
2018-07-16T03:43:47.803Z,18.00
2018-07-16T03:44:21.172Z,17.90
2018-07-16T03:44:54.175Z,17.90
2018-07-16T03:45:27.175Z,18.00
2018-07-16T03:46:00.247Z,17.90
2018-07-16T03:46:33.401Z,17.90
2018-07-16T03:47:06.403Z,17.90
2018-07-16T03:47:39.383Z,17.90
2018-07-16T03:48:12.386Z,17.90
2018-07-16T03:48:45.413Z,18.00
2018-07-16T03:49:18.439Z,18.00
2018-07-16T03:49:51.457Z,17.90
2018-07-16T03:50:24.533Z,18.00
2018-07-16T03:50:57.544Z,18.00
2018-07-16T03:51:30.526Z,17.90
2018-07-16T03:52:03.576Z,18.00
2018-07-16T03:52:36.568Z,17.90
2018-07-16T03:53:09.551Z,17.90
2018-07-16T03:53:42.538Z,17.90
2018-07-16T03:54:15.626Z,17.90
2018-07-16T03:54:48.615Z,17.90
2018-07-16T03:55:21.618Z,17.90
2018-07-16T03:55:54.667Z,18.00
2018-07-16T03:56:27.641Z,18.00
2018-07-16T03:57:00.699Z,17.90
2018-07-16T03:57:33.705Z,18.10
2018-07-16T03:58:06.787Z,18.00
2018-07-16T03:58:39.810Z,18.00
2018-07-16T03:59:12.886Z,18.00
2018-07-16T03:59:45.879Z,18.00
2018-07-16T04:00:18.871Z,18.00
2018-07-16T04:00:51.886Z,17.90
2018-07-16T04:01:24.927Z,18.00
2018-07-16T04:01:57.971Z,18.10
2018-07-16T04:02:31.011Z,17.90
2018-07-16T04:03:04.199Z,18.00
2018-07-16T04:03:37.225Z,17.90
2018-07-16T04:04:10.274Z,18.00
2018-07-16T04:04:43.301Z,18.00
2018-07-16T04:05:16.303Z,18.00
2018-07-16T04:05:49.287Z,18.00
2018-07-16T04:06:22.264Z,18.10
2018-07-16T04:06:55.293Z,18.00
2018-07-16T04:07:28.476Z,18.00
2018-07-16T04:08:01.465Z,18.10
2018-07-16T04:08:34.475Z,18.10
2018-07-16T04:09:07.787Z,18.10
2018-07-16T04:09:40.762Z,18.20
2018-07-16T04:10:13.782Z,18.20
2018-07-16T04:10:46.815Z,18.10
2018-07-16T04:11:19.829Z,18.10
2018-07-16T04:11:53.069Z,18.20
2018-07-16T04:12:26.125Z,18.20
2018-07-16T04:12:59.111Z,18.20
2018-07-16T04:13:32.141Z,18.10
2018-07-16T04:14:05.145Z,18.10
2018-07-16T04:14:38.116Z,18.20
2018-07-16T04:15:11.070Z,18.20
2018-07-16T04:15:44.063Z,18.20
2018-07-16T04:16:17.067Z,18.20
2018-07-16T04:16:50.051Z,18.30
2018-07-16T04:17:23.147Z,18.20
2018-07-16T04:17:56.189Z,18.30
2018-07-16T04:18:29.195Z,18.30
2018-07-16T04:19:02.199Z,18.30
2018-07-16T04:19:35.183Z,18.30
2018-07-16T04:20:08.575Z,18.30
2018-07-16T04:20:41.590Z,18.30
2018-07-16T04:21:14.585Z,18.30
2018-07-16T04:21:47.557Z,18.30
2018-07-16T04:22:20.535Z,18.30
2018-07-16T04:22:53.533Z,18.40
2018-07-16T04:23:26.563Z,18.40
2018-07-16T04:23:59.625Z,18.40
2018-07-16T04:24:32.639Z,18.30
2018-07-16T04:25:05.675Z,18.40
2018-07-16T04:25:38.937Z,18.50
2018-07-16T04:26:11.963Z,18.50
2018-07-16T04:26:44.953Z,18.50
2018-07-16T04:27:17.975Z,18.50
2018-07-16T04:27:51.434Z,18.50
2018-07-16T04:28:24.392Z,18.50
2018-07-16T04:28:57.378Z,18.40
2018-07-16T04:29:30.349Z,18.50
2018-07-16T04:30:03.421Z,18.60
2018-07-16T04:30:36.379Z,18.50
2018-07-16T04:31:09.403Z,18.60
2018-07-16T04:31:42.395Z,18.50
2018-07-16T04:32:15.410Z,18.50
2018-07-16T04:32:48.378Z,18.50
2018-07-16T04:33:21.395Z,18.60
2018-07-16T04:33:54.425Z,18.50
2018-07-16T04:34:27.403Z,18.60
2018-07-16T04:35:00.403Z,18.60
2018-07-16T04:35:33.429Z,18.60
2018-07-16T04:36:06.455Z,18.70
2018-07-16T04:36:39.483Z,18.70
2018-07-16T04:37:12.483Z,18.60
2018-07-16T04:37:45.490Z,18.70
2018-07-16T04:38:18.477Z,18.70
2018-07-16T04:38:51.493Z,18.70
2018-07-16T04:39:24.470Z,18.80
2018-07-16T04:39:57.523Z,18.70
2018-07-16T04:40:30.499Z,18.70
2018-07-16T04:41:03.505Z,18.70
2018-07-16T04:41:36.495Z,18.80
2018-07-16T04:42:09.679Z,18.70
2018-07-16T04:42:42.697Z,18.80
2018-07-16T04:43:15.676Z,18.90
2018-07-16T04:43:48.645Z,18.80
2018-07-16T04:44:21.700Z,18.90
2018-07-16T04:44:54.690Z,18.90
2018-07-16T04:45:27.698Z,19.00
2018-07-16T04:46:00.722Z,18.90
2018-07-16T04:46:33.692Z,19.00
2018-07-16T04:47:06.742Z,19.00
2018-07-16T04:47:39.789Z,19.00
2018-07-16T04:48:12.822Z,19.00
2018-07-16T04:48:45.836Z,19.00
2018-07-16T04:49:18.809Z,19.00
2018-07-16T04:49:51.984Z,19.00
2018-07-16T04:50:24.998Z,19.10
2018-07-16T04:50:58.038Z,19.20
2018-07-16T04:51:31.026Z,19.20
2018-07-16T04:52:04.119Z,19.20
2018-07-16T04:52:37.112Z,19.20
2018-07-16T04:53:10.156Z,19.30
2018-07-16T04:53:43.326Z,19.20
2018-07-16T04:54:16.274Z,19.40
2018-07-16T04:54:49.278Z,19.30
2018-07-16T04:55:22.291Z,19.30
2018-07-16T04:55:55.286Z,19.40
2018-07-16T04:56:28.279Z,19.30
2018-07-16T04:57:01.262Z,19.30
2018-07-16T04:57:34.284Z,19.50
2018-07-16T04:58:07.287Z,19.60
2018-07-16T04:58:40.238Z,19.50
2018-07-16T04:59:13.209Z,19.50
2018-07-16T04:59:46.305Z,19.50
2018-07-16T05:00:19.310Z,19.50
2018-07-16T05:00:52.332Z,19.60
2018-07-16T05:01:25.312Z,19.70
2018-07-16T05:01:58.298Z,19.70
2018-07-16T05:02:31.288Z,19.60
2018-07-16T05:03:04.535Z,19.70
2018-07-16T05:03:37.541Z,19.70
2018-07-16T05:04:10.712Z,19.70
2018-07-16T05:04:43.722Z,19.80
2018-07-16T05:05:16.699Z,19.90
2018-07-16T05:05:49.663Z,19.90
2018-07-16T05:06:22.820Z,20.00
2018-07-16T05:06:55.836Z,19.90
2018-07-16T05:07:28.828Z,20.00
2018-07-16T05:08:01.798Z,20.00
2018-07-16T05:08:34.804Z,19.90
2018-07-16T05:09:07.846Z,20.00
2018-07-16T05:09:40.810Z,20.10
2018-07-16T05:10:13.794Z,20.10
2018-07-16T05:10:46.752Z,20.10
2018-07-16T05:11:19.714Z,20.20
2018-07-16T05:11:52.666Z,20.20
2018-07-16T05:12:25.704Z,20.20
2018-07-16T05:12:58.698Z,20.20
2018-07-16T05:13:31.642Z,20.30
2018-07-16T05:14:04.668Z,20.40
2018-07-16T05:14:37.676Z,20.30
2018-07-16T05:15:10.701Z,20.40
2018-07-16T05:15:43.694Z,20.40
2018-07-16T05:16:16.875Z,20.40
2018-07-16T05:16:49.826Z,20.50
2018-07-16T05:17:22.846Z,20.40
2018-07-16T05:17:55.847Z,20.60
2018-07-16T05:18:29.136Z,20.60
2018-07-16T05:19:01.851Z,20.70
2018-07-16T05:19:34.818Z,20.70
2018-07-16T05:20:07.802Z,20.70
2018-07-16T05:20:40.844Z,20.70
2018-07-16T05:21:13.823Z,20.80
2018-07-16T05:21:47.532Z,20.80
2018-07-16T05:22:20.519Z,20.90
2018-07-16T05:22:53.514Z,20.90
2018-07-16T05:23:26.496Z,21.00
2018-07-16T05:23:59.564Z,20.90
2018-07-16T05:24:32.600Z,21.00
2018-07-16T05:25:05.631Z,21.00
2018-07-16T05:25:38.625Z,21.10
2018-07-16T05:26:11.616Z,21.00
2018-07-16T05:26:44.583Z,20.90
2018-07-16T05:27:17.640Z,21.10
2018-07-16T05:27:50.632Z,21.10
2018-07-16T05:28:23.628Z,21.40
2018-07-16T05:28:56.622Z,21.20
2018-07-16T05:29:29.615Z,21.10
2018-07-16T05:30:02.627Z,21.20
2018-07-16T05:30:35.652Z,21.30
2018-07-16T05:31:08.660Z,21.30
2018-07-16T05:31:41.648Z,21.40
2018-07-16T05:32:14.834Z,21.50
2018-07-16T05:32:47.809Z,21.40
2018-07-16T05:33:20.646Z,21.50
2018-07-16T05:33:53.669Z,21.60
2018-07-16T05:34:26.690Z,21.50
2018-07-16T05:34:59.722Z,21.60
2018-07-16T05:35:32.734Z,21.60
2018-07-16T05:36:05.747Z,21.50
2018-07-16T05:36:38.770Z,21.60
2018-07-16T05:37:11.762Z,21.70
2018-07-16T05:37:44.794Z,21.60
2018-07-16T05:43:10.569Z,21.80
2018-07-16T05:43:43.540Z,22.00
2018-07-16T05:44:16.546Z,22.10
2018-07-16T05:44:49.518Z,22.00
2018-07-16T05:45:22.532Z,22.00
2018-07-16T05:45:55.534Z,22.00
2018-07-16T05:46:28.495Z,22.00
2018-07-16T05:47:01.533Z,22.10
2018-07-16T05:47:34.588Z,22.10
2018-07-16T05:48:07.634Z,22.20
2018-07-16T05:48:40.654Z,22.20
2018-07-16T05:49:13.632Z,22.10
2018-07-16T05:49:46.622Z,22.10
2018-07-16T05:50:19.618Z,22.20
2018-07-16T05:50:52.615Z,22.20
2018-07-16T05:51:25.644Z,22.30
2018-07-16T05:51:58.634Z,22.20
2018-07-16T05:52:31.593Z,22.30
2018-07-16T05:53:04.861Z,22.30
2018-07-16T05:53:37.976Z,22.30
2018-07-16T05:54:10.986Z,22.40
2018-07-16T05:54:43.962Z,22.50
2018-07-16T05:55:17.001Z,22.40
2018-07-16T05:55:50.009Z,22.40
2018-07-16T05:56:22.961Z,22.60
2018-07-16T05:56:55.950Z,22.60
2018-07-16T05:57:28.989Z,22.70
2018-07-16T05:58:01.959Z,22.70
2018-07-16T06:00:04.527Z,22.70
2018-07-16T06:00:37.529Z,22.70
2018-07-16T06:01:10.575Z,22.70
2018-07-16T06:01:43.551Z,22.70
2018-07-16T06:02:16.581Z,22.60
2018-07-16T06:02:49.714Z,22.60
2018-07-16T06:03:22.784Z,22.60
2018-07-16T06:03:55.816Z,22.60
2018-07-16T06:04:28.836Z,22.70
2018-07-16T06:05:02.131Z,22.80
2018-07-16T06:05:35.144Z,22.80
2018-07-16T06:06:08.158Z,22.80
2018-07-16T06:06:41.135Z,22.80
2018-07-16T06:07:14.159Z,22.90
2018-07-16T06:07:47.145Z,22.90
2018-07-16T06:08:20.150Z,23.00
2018-07-16T06:08:53.245Z,23.00
2018-07-16T06:09:26.161Z,22.90
2018-07-16T06:09:59.208Z,22.90
2018-07-16T06:10:32.164Z,23.10
2018-07-16T06:11:05.176Z,23.10
2018-07-16T06:11:38.243Z,23.20
2018-07-16T06:12:11.259Z,23.30
2018-07-16T06:12:44.274Z,23.40
2018-07-16T06:13:17.332Z,23.50
2018-07-16T06:13:50.348Z,23.60
2018-07-16T06:14:23.468Z,23.60
2018-07-16T06:14:56.493Z,23.60
2018-07-16T06:15:29.517Z,23.50
2018-07-16T06:16:02.519Z,23.70
2018-07-16T06:16:35.528Z,23.70
2018-07-16T06:17:08.536Z,23.90
2018-07-16T06:17:41.554Z,23.90
2018-07-16T06:18:14.528Z,24.00
2018-07-16T06:18:47.464Z,24.10
2018-07-16T06:19:20.411Z,24.10
2018-07-16T06:19:53.385Z,24.00
2018-07-16T06:20:26.467Z,24.20
2018-07-16T06:20:59.420Z,24.30
2018-07-16T06:21:32.403Z,24.20
2018-07-16T06:22:05.625Z,24.30
2018-07-16T06:22:38.905Z,24.30
2018-07-16T06:23:11.899Z,24.50
2018-07-16T06:23:44.898Z,24.50
2018-07-16T06:24:17.936Z,24.70
2018-07-16T06:24:50.912Z,24.80
2018-07-16T06:25:23.935Z,24.80
2018-07-16T06:25:56.931Z,24.80
2018-07-16T06:26:29.925Z,24.80
2018-07-16T06:27:02.967Z,24.80
2018-07-16T06:27:36.037Z,24.90
2018-07-16T06:28:09.015Z,25.00
2018-07-16T06:28:42.011Z,24.90
2018-07-16T06:29:15.348Z,24.90
2018-07-16T06:29:48.408Z,24.90
2018-07-16T06:30:21.378Z,24.80
2018-07-16T06:30:54.411Z,24.90
2018-07-16T06:31:27.399Z,25.10
2018-07-16T06:32:00.368Z,24.80
2018-07-16T06:32:33.457Z,25.10
2018-07-16T06:33:06.433Z,25.10
2018-07-16T06:33:39.413Z,25.20
2018-07-16T06:34:12.391Z,25.20
2018-07-16T06:34:45.361Z,25.30
2018-07-16T06:35:18.450Z,25.60
2018-07-16T06:35:51.455Z,25.60
2018-07-16T06:37:28.653Z,25.70
2018-07-16T06:38:01.605Z,25.80
2018-07-16T06:38:34.585Z,25.90
2018-07-16T06:39:07.619Z,26.00
2018-07-16T06:39:40.675Z,26.30
2018-07-16T06:40:13.698Z,26.60
2018-07-16T06:40:46.691Z,27.10
2018-07-16T06:41:19.858Z,27.80
2018-07-16T06:41:52.595Z,28.10
2018-07-16T06:42:25.562Z,28.80
2018-07-16T06:42:58.519Z,29.00
2018-07-16T06:43:31.669Z,29.10
2018-07-16T06:44:04.687Z,28.90
2018-07-16T06:44:37.705Z,28.40
2018-07-16T06:45:10.723Z,27.90
2018-07-16T06:45:43.746Z,27.40
2018-07-16T06:46:16.912Z,27.40
2018-07-16T06:46:49.913Z,27.40
2018-07-16T06:47:22.889Z,27.90
2018-07-16T06:47:55.976Z,28.70
2018-07-16T06:48:28.865Z,29.10
2018-07-16T06:49:01.867Z,30.00
2018-07-16T06:49:35.275Z,31.00
2018-07-16T06:50:08.248Z,31.80
2018-07-16T06:50:41.244Z,32.60
2018-07-16T06:51:14.269Z,33.30
2018-07-16T06:51:47.247Z,33.30
2018-07-16T06:52:20.228Z,33.40
2018-07-16T06:52:53.226Z,33.60
2018-07-16T06:53:26.205Z,33.70
2018-07-16T06:53:59.215Z,33.50
2018-07-16T06:54:32.254Z,34.00
2018-07-16T06:55:06.104Z,34.20
2018-07-16T06:55:39.033Z,33.90
2018-07-16T06:56:12.023Z,34.30
2018-07-16T06:56:44.997Z,34.00
2018-07-16T06:57:18.244Z,34.40
2018-07-16T06:57:51.330Z,34.00
2018-07-16T06:58:24.303Z,34.40
2018-07-16T06:58:57.279Z,34.70
2018-07-16T06:59:30.328Z,35.20
2018-07-16T07:00:03.477Z,35.20
2018-07-16T07:00:36.449Z,35.50
2018-07-16T07:01:09.451Z,35.60
2018-07-16T07:01:42.407Z,35.80
2018-07-16T07:02:15.390Z,36.00
2018-07-16T07:02:48.383Z,35.80
2018-07-16T07:03:21.425Z,35.80
2018-07-16T07:03:54.379Z,35.90
2018-07-16T07:04:27.379Z,36.10
2018-07-16T07:05:00.445Z,36.20
2018-07-16T07:05:33.861Z,36.50
2018-07-16T07:06:06.865Z,36.50
2018-07-16T07:06:39.865Z,37.00
2018-07-16T07:07:12.893Z,37.40
2018-07-16T07:07:45.915Z,37.60
2018-07-16T07:08:18.879Z,38.00
2018-07-16T07:08:51.851Z,38.00
2018-07-16T07:09:24.848Z,37.70
2018-07-16T07:09:57.844Z,37.70
2018-07-16T07:10:30.857Z,37.10
2018-07-16T07:11:03.876Z,37.00
2018-07-16T07:11:36.859Z,37.00
2018-07-16T07:12:09.899Z,36.60
2018-07-16T07:12:42.929Z,36.30
2018-07-16T07:13:15.951Z,36.50
2018-07-16T07:13:48.955Z,36.80
2018-07-16T07:14:22.069Z,36.70
2018-07-16T07:14:55.121Z,36.70
2018-07-16T07:15:28.120Z,36.60
2018-07-16T07:16:01.169Z,36.50
2018-07-16T07:16:34.247Z,36.30
2018-07-16T07:17:07.241Z,36.20
2018-07-16T07:17:40.260Z,36.30
2018-07-16T07:18:13.288Z,36.20
2018-07-16T07:18:46.492Z,36.50
2018-07-16T07:19:19.429Z,36.80
2018-07-16T07:19:52.431Z,36.50
2018-07-16T07:20:25.411Z,36.70
2018-07-16T07:20:58.525Z,36.60
2018-07-16T07:21:31.509Z,36.30
2018-07-16T07:22:04.549Z,36.80
2018-07-16T07:22:37.515Z,37.30
2018-07-16T07:23:10.483Z,37.20
2018-07-16T07:23:43.823Z,37.60
2018-07-16T07:24:16.815Z,37.70
2018-07-16T07:24:49.827Z,37.70